createdAt,value
2023-04-29T00:01:13.772Z,4.50
2023-04-29T00:03:41.549Z,4.37
2023-04-29T00:06:11.628Z,4.40
2023-04-29T00:08:39.435Z,5.23
2023-04-29T00:11:07.146Z,4.13
2023-04-29T00:13:34.784Z,4.40
2023-04-29T00:16:02.985Z,5.43
2023-04-29T00:18:30.654Z,6.87
2023-04-29T00:20:58.301Z,3.27
2023-04-29T00:23:27.532Z,2.50
2023-04-29T00:25:55.204Z,3.50
2023-04-29T00:28:22.858Z,2.70
2023-04-29T00:30:50.575Z,2.70
2023-04-29T00:33:18.251Z,2.33
2023-04-29T00:35:45.986Z,2.67
2023-04-29T00:38:13.618Z,2.80
2023-04-29T00:40:43.598Z,3.10
2023-04-29T00:43:11.541Z,3.00
2023-04-29T00:45:39.208Z,3.00
2023-04-29T00:48:07.699Z,5.37
2023-04-29T00:50:36.975Z,3.37
2023-04-29T00:53:04.784Z,3.13
2023-04-29T00:55:33.907Z,2.60
2023-04-29T00:58:04.254Z,3.10
2023-04-29T01:00:33.561Z,3.93
2023-04-29T01:03:01.309Z,3.00
2023-04-29T01:05:29.091Z,3.77
2023-04-29T01:08:07.832Z,2.80
2023-04-29T01:10:42.737Z,2.90
2023-04-29T01:13:19.141Z,2.70
2023-04-29T01:15:55.542Z,2.70
2023-04-29T01:18:30.498Z,3.47
2023-04-29T01:20:59.644Z,2.63
2023-04-29T01:23:29.027Z,2.70
2023-04-29T01:25:57.370Z,2.80
2023-04-29T01:28:39.970Z,2.40
2023-04-29T01:31:13.171Z,2.83
2023-04-29T01:33:45.548Z,3.10
2023-04-29T01:36:22.405Z,2.83
2023-04-29T01:38:58.987Z,2.30
2023-04-29T01:41:36.040Z,2.60
2023-04-29T01:44:05.585Z,2.83
2023-04-29T01:46:34.812Z,1.90
2023-04-29T01:49:03.157Z,2.63
2023-04-29T01:51:31.418Z,4.60
2023-04-29T01:54:00.325Z,2.20
2023-04-29T01:56:27.934Z,2.03
2023-04-29T01:58:55.484Z,1.83
2023-04-29T02:01:23.118Z,3.73
2023-04-29T02:03:51.310Z,2.07
2023-04-29T02:06:19.211Z,2.13
2023-04-29T02:08:46.806Z,1.70
2023-04-29T02:11:16.272Z,3.93
2023-04-29T02:13:44.111Z,1.70
2023-04-29T02:16:15.053Z,2.40
2023-04-29T02:18:42.948Z,1.80
2023-04-29T02:21:10.514Z,1.70
2023-04-29T02:23:38.188Z,1.87
2023-04-29T02:26:06.943Z,2.23
2023-04-29T02:28:35.919Z,2.40
2023-04-29T02:31:03.542Z,1.90
2023-04-29T02:33:31.162Z,3.83
2023-04-29T02:35:59.609Z,1.73
2023-04-29T02:38:27.293Z,2.30
2023-04-29T02:40:54.892Z,9.07
2023-04-29T02:43:22.636Z,2.17
2023-04-29T02:45:51.691Z,1.80
2023-04-29T02:48:20.979Z,2.90
2023-04-29T02:50:49.207Z,1.97
2023-04-29T02:53:17.178Z,2.03
2023-04-29T02:55:44.962Z,1.97
2023-04-29T02:58:12.569Z,2.67
2023-04-29T03:00:42.117Z,3.47
2023-04-29T03:03:11.737Z,2.87
2023-04-29T03:05:39.438Z,3.00
2023-04-29T03:08:07.497Z,3.60
2023-04-29T03:10:35.107Z,4.47
2023-04-29T03:13:02.842Z,3.40
2023-04-29T03:15:30.875Z,4.33
2023-04-29T03:18:01.568Z,4.30
2023-04-29T03:20:30.762Z,5.17
2023-04-29T03:22:58.373Z,6.20
2023-04-29T03:25:25.959Z,5.40
2023-04-29T03:27:53.765Z,5.77
2023-04-29T03:30:21.350Z,5.97
2023-04-29T03:32:49.334Z,6.20
2023-04-29T03:35:17.091Z,5.97
2023-04-29T03:37:46.037Z,5.60
2023-04-29T03:40:17.897Z,8.33
2023-04-29T03:42:45.475Z,5.13
2023-04-29T03:45:14.318Z,6.10
2023-04-29T03:47:41.945Z,10.07
2023-04-29T03:50:15.202Z,6.20
2023-04-29T03:52:42.798Z,5.93
2023-04-29T03:55:12.601Z,7.57
2023-04-29T03:57:42.641Z,5.33
2023-04-29T04:00:11.370Z,6.77
2023-04-29T04:02:39.332Z,6.53
2023-04-29T04:05:07.236Z,8.50
2023-04-29T04:07:35.178Z,5.63
2023-04-29T04:10:02.771Z,7.00
2023-04-29T04:12:31.852Z,7.30
2023-04-29T04:14:59.489Z,6.93
2023-04-29T04:17:27.026Z,5.87
2023-04-29T04:19:55.010Z,8.80
2023-04-29T04:22:22.699Z,8.47
2023-04-29T04:24:50.266Z,8.57
2023-04-29T04:27:17.876Z,7.77
2023-04-29T04:29:46.831Z,7.80
2023-04-29T04:32:14.358Z,8.67
2023-04-29T04:34:42.136Z,10.67
2023-04-29T04:37:09.800Z,8.60
2023-04-29T04:39:37.582Z,9.67
2023-04-29T04:42:05.284Z,8.17
2023-04-29T04:44:32.979Z,8.00
2023-04-29T04:47:02.250Z,10.00
2023-04-29T04:49:29.976Z,9.17
2023-04-29T04:51:57.566Z,10.37
2023-04-29T04:54:25.258Z,8.53
2023-04-29T04:56:53.070Z,9.00
2023-04-29T04:59:20.945Z,13.97
2023-04-29T05:01:48.673Z,10.50
2023-04-29T05:04:18.751Z,9.70
2023-04-29T05:06:46.765Z,10.03
2023-04-29T05:09:14.710Z,8.70
2023-04-29T05:11:42.273Z,9.27
2023-04-29T05:14:10.052Z,8.57
2023-04-29T05:16:38.094Z,6.53
2023-04-29T05:19:05.802Z,7.47
2023-04-29T05:21:34.819Z,7.73
2023-04-29T05:24:02.491Z,11.17
2023-04-29T05:26:30.050Z,6.90
2023-04-29T05:28:57.733Z,10.50
2023-04-29T05:31:26.167Z,9.43
2023-04-29T05:33:54.227Z,11.93
2023-04-29T05:36:22.466Z,7.07
2023-04-29T05:38:51.360Z,7.30
2023-04-29T05:41:18.979Z,8.37
2023-04-29T05:43:46.928Z,7.57
2023-04-29T05:46:14.620Z,7.73
2023-04-29T05:48:42.484Z,8.10
2023-04-29T05:51:10.432Z,6.07
2023-04-29T05:53:38.490Z,4.90
2023-04-29T05:56:08.398Z,5.70
2023-04-29T05:58:36.255Z,5.77
2023-04-29T06:01:04.411Z,5.10
2023-04-29T06:03:32.317Z,5.37
2023-04-29T06:06:00.626Z,4.17
2023-04-29T06:08:28.567Z,5.50
2023-04-29T06:10:56.191Z,7.07
2023-04-29T06:13:25.178Z,4.93
2023-04-29T06:15:52.892Z,6.27
2023-04-29T06:18:20.833Z,4.97
2023-04-29T06:20:48.505Z,4.60
2023-04-29T06:23:16.127Z,4.13
2023-04-29T06:25:43.804Z,4.70
2023-04-29T06:28:11.629Z,6.90
2023-04-29T06:30:40.560Z,4.50
2023-04-29T06:33:08.199Z,4.50
2023-04-29T06:35:40.260Z,4.63
2023-04-29T06:38:09.063Z,6.00
2023-04-29T06:40:36.923Z,6.70
2023-04-29T06:43:04.847Z,6.77
2023-04-29T06:45:32.433Z,8.13
2023-04-29T06:48:01.419Z,5.10
2023-04-29T06:50:29.599Z,5.30
2023-04-29T06:52:57.130Z,6.27
2023-04-29T06:55:24.902Z,5.67
2023-04-29T06:57:52.506Z,5.60
2023-04-29T07:00:21.195Z,6.27
2023-04-29T07:02:48.806Z,4.63
2023-04-29T07:05:18.492Z,4.90
2023-04-29T07:07:46.154Z,5.23
2023-04-29T07:10:13.809Z,5.20
2023-04-29T07:12:41.558Z,4.90
2023-04-29T07:15:09.849Z,5.13
2023-04-29T07:17:37.510Z,5.83
2023-04-29T07:20:06.713Z,5.10
2023-04-29T07:22:35.929Z,5.13
2023-04-29T07:25:04.397Z,5.17
2023-04-29T07:27:33.437Z,12.97
2023-04-29T07:30:01.165Z,6.20
2023-04-29T07:32:28.988Z,7.27
2023-04-29T07:34:58.459Z,8.90
2023-04-29T07:37:27.119Z,6.10
2023-04-29T07:39:56.281Z,7.17
2023-04-29T07:42:23.865Z,6.47
2023-04-29T07:44:51.669Z,6.93
2023-04-29T07:47:19.602Z,8.20
2023-04-29T07:49:47.338Z,6.20
2023-04-29T07:52:14.940Z,6.00
2023-04-29T07:54:42.492Z,7.73
2023-04-29T07:57:11.581Z,6.33
2023-04-29T07:59:39.395Z,7.83
2023-04-29T08:02:07.827Z,7.67
2023-04-29T08:04:35.647Z,8.10
2023-04-29T08:07:05.578Z,6.60
2023-04-29T08:09:33.169Z,4.47
2023-04-29T08:12:02.173Z,16.07
2023-04-29T08:14:31.250Z,8.40
2023-04-29T08:16:58.910Z,4.17
2023-04-29T08:19:26.623Z,8.90
2023-04-29T08:21:54.932Z,5.30
2023-04-29T08:24:22.861Z,15.70
2023-04-29T08:26:51.096Z,5.47
2023-04-29T08:29:18.831Z,4.17
2023-04-29T08:31:48.890Z,4.77
2023-04-29T08:34:16.705Z,4.33
2023-04-29T08:36:44.399Z,5.63
2023-04-29T08:39:12.074Z,4.07
2023-04-29T08:41:39.997Z,4.30
2023-04-29T08:44:07.832Z,5.43
2023-04-29T08:46:35.732Z,4.10
2023-04-29T08:49:05.544Z,4.73
2023-04-29T08:51:34.708Z,3.80
2023-04-29T08:54:02.826Z,3.30
2023-04-29T08:56:32.494Z,6.40
2023-04-29T08:59:01.880Z,4.77
2023-04-29T09:01:31.118Z,5.50
2023-04-29T09:04:17.071Z,8.10
2023-04-29T09:06:47.230Z,5.37
2023-04-29T09:09:15.648Z,5.00
2023-04-29T09:11:43.706Z,4.90
2023-04-29T09:14:11.441Z,5.67
2023-04-29T09:16:39.157Z,6.10
2023-04-29T09:19:07.110Z,5.53
2023-04-29T09:21:36.066Z,4.90
2023-04-29T09:24:04.837Z,4.97
2023-04-29T09:26:42.990Z,4.20
2023-04-29T09:29:13.922Z,5.90
2023-04-29T09:31:43.062Z,4.40
2023-04-29T09:34:11.772Z,3.40
2023-04-29T09:36:52.309Z,3.90
2023-04-29T09:39:22.633Z,8.80
2023-04-29T09:42:02.704Z,4.77
2023-04-29T09:44:34.493Z,7.47
2023-04-29T09:47:04.614Z,3.57
2023-04-29T09:49:37.393Z,4.70
2023-04-29T09:52:08.779Z,3.87
2023-04-29T09:54:38.909Z,6.03
2023-04-29T09:57:09.946Z,4.37
2023-04-29T09:59:38.986Z,3.97
2023-04-29T10:02:11.553Z,3.40
2023-04-29T10:04:42.632Z,3.30
2023-04-29T10:07:15.814Z,3.37
2023-04-29T10:09:46.721Z,3.73
2023-04-29T10:12:17.517Z,3.43
2023-04-29T10:15:07.200Z,3.70
2023-04-29T10:17:44.473Z,3.40
2023-04-29T10:20:15.392Z,5.03
2023-04-29T10:22:48.039Z,3.07
2023-04-29T10:25:17.119Z,3.43
2023-04-29T10:27:45.958Z,8.00
2023-04-29T10:30:16.594Z,3.30
2023-04-29T10:32:51.665Z,4.93
2023-04-29T10:35:23.586Z,3.63
2023-04-29T10:37:54.156Z,3.33
2023-04-29T10:40:28.629Z,4.70
2023-04-29T10:42:56.428Z,5.13
2023-04-29T10:45:27.184Z,2.30
2023-04-29T10:48:13.240Z,2.43
2023-04-29T10:51:01.135Z,3.67
2023-04-29T10:53:30.723Z,2.10
2023-04-29T10:56:04.311Z,2.17
2023-04-29T10:58:36.924Z,2.17
2023-04-29T11:01:06.253Z,4.70
2023-04-29T11:03:48.467Z,2.40
2023-04-29T11:06:16.634Z,3.03
2023-04-29T11:08:45.889Z,2.20
2023-04-29T11:11:15.375Z,6.93
2023-04-29T11:13:47.846Z,2.77
2023-04-29T11:16:15.721Z,7.77
2023-04-29T11:19:15.928Z,2.83
2023-04-29T11:21:43.553Z,5.43
2023-04-29T11:24:15.613Z,4.10
2023-04-29T11:26:46.599Z,3.57
2023-04-29T11:29:15.814Z,3.30
2023-04-29T11:31:44.052Z,4.97
2023-04-29T11:34:11.832Z,2.97
2023-04-29T11:36:39.879Z,3.80
2023-04-29T11:39:08.075Z,4.20
2023-04-29T11:41:37.732Z,2.67
2023-04-29T11:44:07.421Z,3.27
2023-04-29T11:46:35.425Z,3.97
2023-04-29T11:49:06.695Z,2.97
2023-04-29T11:51:34.714Z,3.80
2023-04-29T11:54:02.383Z,2.07
2023-04-29T11:56:30.314Z,3.80
2023-04-29T11:59:01.303Z,3.10
2023-04-29T12:01:31.128Z,3.00
2023-04-29T12:04:00.990Z,2.53
2023-04-29T12:06:30.043Z,2.37
2023-04-29T12:09:00.418Z,2.73
2023-04-29T12:11:28.215Z,2.67
2023-04-29T12:13:56.093Z,2.50
2023-04-29T12:16:25.664Z,2.20
2023-04-29T12:18:54.322Z,4.53
2023-04-29T12:21:23.077Z,3.13
2023-04-29T12:23:52.388Z,2.83
2023-04-29T12:26:20.843Z,2.03
2023-04-29T12:28:50.236Z,2.07
2023-04-29T12:31:18.160Z,2.10
2023-04-29T12:33:47.400Z,1.87
2023-04-29T12:36:19.123Z,2.60
2023-04-29T12:38:48.669Z,2.60
2023-04-29T12:41:17.403Z,2.37
2023-04-29T12:43:45.393Z,2.40
2023-04-29T12:46:13.775Z,2.70
2023-04-29T12:48:44.560Z,2.87
2023-04-29T12:51:13.760Z,2.30
2023-04-29T12:53:42.018Z,3.47
2023-04-29T12:56:13.140Z,2.90
2023-04-29T12:58:40.742Z,1.93
2023-04-29T13:01:08.417Z,1.80
2023-04-29T13:03:36.226Z,2.20
2023-04-29T13:06:04.124Z,2.73
2023-04-29T13:08:33.179Z,1.87
2023-04-29T13:11:01.111Z,2.20
2023-04-29T13:13:28.731Z,2.30
2023-04-29T13:15:56.718Z,2.50
2023-04-29T13:18:24.301Z,2.30
2023-04-29T13:20:53.284Z,4.10
2023-04-29T13:23:20.984Z,2.43
2023-04-29T13:25:51.376Z,2.27
2023-04-29T13:28:19.148Z,2.17
2023-04-29T13:30:46.789Z,2.23
2023-04-29T13:33:14.575Z,2.80
2023-04-29T13:35:42.306Z,2.23
2023-04-29T13:38:10.061Z,3.87
2023-04-29T13:40:41.815Z,2.20
2023-04-29T13:43:18.637Z,1.73
2023-04-29T13:45:57.245Z,3.47
2023-04-29T13:49:00.875Z,2.50
2023-04-29T14:01:55.152Z,2.43
2023-04-29T14:04:06.028Z,2.47
2023-04-29T14:06:34.092Z,7.20
2023-04-29T14:09:03.718Z,3.40
2023-04-29T14:11:36.436Z,2.77
2023-04-29T14:14:05.887Z,2.50
2023-04-29T14:16:33.648Z,2.57
2023-04-29T14:19:03.640Z,2.63
2023-04-29T14:21:33.081Z,2.30
2023-04-29T14:24:02.388Z,3.63
2023-04-29T14:26:30.145Z,2.77
2023-04-29T14:28:59.259Z,2.47
2023-04-29T14:31:29.500Z,2.90
2023-04-29T14:33:58.261Z,2.70
2023-04-29T14:36:28.072Z,3.00
2023-04-29T14:39:00.636Z,2.67
2023-04-29T14:41:28.399Z,3.03
2023-04-29T14:43:56.033Z,3.70
2023-04-29T14:46:25.016Z,2.80
2023-04-29T14:48:53.961Z,3.50
2023-04-29T14:51:21.831Z,3.73
2023-04-29T14:53:49.649Z,2.93
2023-04-29T14:56:17.691Z,5.13
2023-04-29T14:58:45.468Z,3.83
2023-04-29T15:01:13.300Z,3.43
2023-04-29T15:03:44.165Z,3.93
2023-04-29T15:06:14.389Z,4.20
2023-04-29T15:08:42.238Z,3.23
2023-04-29T15:11:09.902Z,2.90
2023-04-29T15:13:37.593Z,2.10
2023-04-29T15:16:07.350Z,2.00
2023-04-29T15:18:35.109Z,2.07
2023-04-29T15:21:04.314Z,1.93
2023-04-29T15:23:33.444Z,1.60
2023-04-29T15:26:01.215Z,2.27
2023-04-29T15:28:28.792Z,1.77
2023-04-29T15:30:56.650Z,2.07
2023-04-29T15:33:24.321Z,2.00
2023-04-29T15:35:52.147Z,1.40
2023-04-29T15:38:19.771Z,5.10
2023-04-29T15:40:48.693Z,2.10
2023-04-29T15:43:16.610Z,1.63
2023-04-29T15:45:44.385Z,4.57
2023-04-29T15:48:12.133Z,1.90
2023-04-29T15:50:39.953Z,2.47
2023-04-29T15:53:07.484Z,3.30
2023-04-29T15:55:36.019Z,2.90
2023-04-29T15:58:05.054Z,2.60
2023-04-29T16:00:32.849Z,4.70
2023-04-29T16:03:00.584Z,8.60
2023-04-29T16:05:29.072Z,2.80
2023-04-29T16:07:56.666Z,4.67
2023-04-29T16:10:24.368Z,4.10
2023-04-29T16:12:51.984Z,4.27
2023-04-29T16:15:21.214Z,3.77
2023-04-29T16:17:49.021Z,5.90
2023-04-29T16:20:17.501Z,5.93
2023-04-29T16:22:45.046Z,6.13
2023-04-29T16:25:12.834Z,8.20
2023-04-29T16:27:40.588Z,8.10
2023-04-29T16:30:12.234Z,4.90
2023-04-29T16:32:43.105Z,5.70
2023-04-29T16:35:12.660Z,6.07
2023-04-29T16:37:41.747Z,5.43
2023-04-29T16:40:11.055Z,6.60
2023-04-29T16:42:38.743Z,4.90
2023-04-29T16:45:07.181Z,7.10
2023-04-29T16:47:35.384Z,6.83
2023-04-29T16:50:08.697Z,7.83
2023-04-29T16:52:36.374Z,9.20
2023-04-29T16:55:04.367Z,8.10
2023-04-29T16:57:33.631Z,6.83
2023-04-29T17:00:01.446Z,6.90
2023-04-29T17:02:30.682Z,6.20
2023-04-29T17:04:58.932Z,6.93
2023-04-29T17:07:29.150Z,7.47
2023-04-29T17:09:56.987Z,8.20
2023-04-29T17:12:24.950Z,6.67
2023-04-29T17:14:52.568Z,8.10
2023-04-29T17:17:20.325Z,7.50
2023-04-29T17:19:52.289Z,7.57
2023-04-29T17:22:21.211Z,9.23
2023-04-29T17:24:50.783Z,6.97
2023-04-29T17:27:18.475Z,13.33
2023-04-29T17:29:46.300Z,7.70
2023-04-29T17:32:17.444Z,10.07
2023-04-29T17:34:45.194Z,9.10
2023-04-29T17:37:12.849Z,10.10
2023-04-29T17:39:40.609Z,9.03
2023-04-29T17:42:09.533Z,8.27
2023-04-29T17:44:38.199Z,9.33
2023-04-29T17:47:06.116Z,13.43
2023-04-29T17:49:33.928Z,10.40
2023-04-29T17:52:04.081Z,11.90
2023-04-29T17:54:31.983Z,11.17
2023-04-29T17:57:02.030Z,15.07
2023-04-29T17:59:31.057Z,9.00
2023-04-29T18:01:58.761Z,10.87
2023-04-29T18:04:26.434Z,10.13
2023-04-29T18:06:54.106Z,12.37
2023-04-29T18:09:22.194Z,9.40
2023-04-29T18:11:50.137Z,8.17
2023-04-29T18:14:17.957Z,8.70
2023-04-29T18:16:47.134Z,9.70
2023-04-29T18:19:14.849Z,10.27
2023-04-29T18:21:42.521Z,8.03
2023-04-29T18:24:10.199Z,8.57
2023-04-29T18:26:37.972Z,12.23
2023-04-29T18:29:06.184Z,9.17
2023-04-29T18:31:34.015Z,11.83
2023-04-29T18:34:03.267Z,9.50
2023-04-29T18:36:33.923Z,11.70
2023-04-29T18:39:02.921Z,12.03
2023-04-29T18:41:30.716Z,12.00
2023-04-29T18:43:58.441Z,11.47
2023-04-29T18:46:26.187Z,9.47
2023-04-29T18:48:53.815Z,9.97
2023-04-29T18:51:25.267Z,11.53
2023-04-29T18:53:53.011Z,9.83
2023-04-29T18:56:21.026Z,8.67
2023-04-29T18:58:49.492Z,14.10
2023-04-29T19:01:17.250Z,9.83
2023-04-29T19:03:44.939Z,10.83
2023-04-29T19:06:12.576Z,15.20
2023-04-29T19:08:41.596Z,12.80
2023-04-29T19:11:09.306Z,10.90
2023-04-29T19:13:36.901Z,12.47
2023-04-29T19:16:04.805Z,11.70
2023-04-29T19:18:32.600Z,11.63
2023-04-29T19:21:01.248Z,12.27
2023-04-29T19:23:28.902Z,9.93
2023-04-29T19:25:57.982Z,11.27
2023-04-29T19:28:25.988Z,10.57
2023-04-29T19:30:54.033Z,15.00
2023-04-29T19:33:21.808Z,11.80
2023-04-29T19:35:49.509Z,12.90
2023-04-29T19:38:24.257Z,12.20
2023-04-29T19:43:38.470Z,13.07
2023-04-29T19:46:06.693Z,13.43
2023-04-29T19:48:34.399Z,13.13
2023-04-29T19:51:02.043Z,12.60
2023-04-29T19:53:30.007Z,12.53
2023-04-29T19:55:57.783Z,17.17
2023-04-29T19:58:25.438Z,9.40
2023-04-29T20:00:54.919Z,13.60
2023-04-29T20:03:22.737Z,13.83
2023-04-29T20:05:50.473Z,12.00
2023-04-29T20:08:18.141Z,11.97
2023-04-29T20:10:48.055Z,8.97
2023-04-29T20:13:15.780Z,13.53
2023-04-29T20:15:43.400Z,10.87
2023-04-29T20:18:12.358Z,11.03
2023-04-29T20:20:40.041Z,9.33
2023-04-29T20:23:07.674Z,11.40
2023-04-29T20:25:35.449Z,10.90
2023-04-29T20:28:03.199Z,13.70
2023-04-29T20:30:30.877Z,8.50
2023-04-29T20:32:58.543Z,11.50
2023-04-29T20:35:27.534Z,11.13
2023-04-29T20:37:55.325Z,9.63
2023-04-29T20:40:23.272Z,10.40
2023-04-29T20:42:51.029Z,13.83
2023-04-29T20:45:21.295Z,12.93
2023-04-29T20:47:49.492Z,11.40
2023-04-29T20:50:17.204Z,9.93
2023-04-29T20:52:49.141Z,10.80
2023-04-29T20:55:17.088Z,12.23
2023-04-29T20:57:44.801Z,12.43
2023-04-29T21:00:14.270Z,11.80
2023-04-29T21:02:42.133Z,14.30
2023-04-29T21:05:10.899Z,10.33
2023-04-29T21:07:38.813Z,9.87
2023-04-29T21:10:08.430Z,11.90
2023-04-29T21:12:36.108Z,10.27
2023-04-29T21:15:04.335Z,13.03
2023-04-29T21:17:32.023Z,14.13
2023-04-29T21:19:59.695Z,14.67
2023-04-29T21:22:27.833Z,14.80
2023-04-29T21:24:55.624Z,13.53
2023-04-29T21:27:24.684Z,12.50
2023-04-29T21:29:52.476Z,12.47
2023-04-29T21:32:21.792Z,12.50
2023-04-29T21:34:49.859Z,11.20
2023-04-29T21:37:17.590Z,12.97
2023-04-29T21:39:45.205Z,12.03
2023-04-29T21:42:14.478Z,12.57
2023-04-29T21:44:44.721Z,12.43
2023-04-29T21:47:12.342Z,14.17
2023-04-29T21:49:40.241Z,11.37
2023-04-29T21:52:08.009Z,11.67
2023-04-29T21:54:35.781Z,13.83
2023-04-29T21:57:03.847Z,12.50
2023-04-29T21:59:34.328Z,11.57
2023-04-29T22:02:14.303Z,15.37
2023-04-29T22:04:42.697Z,13.37
2023-04-29T22:07:10.479Z,13.60
2023-04-29T22:09:38.410Z,14.43
2023-04-29T22:12:06.572Z,11.23
2023-04-29T22:14:36.336Z,11.23
2023-04-29T22:17:06.409Z,12.27
2023-04-29T22:19:34.428Z,13.70
2023-04-29T22:22:02.134Z,14.50
2023-04-29T22:24:31.241Z,13.33
2023-04-29T22:27:00.144Z,12.83
2023-04-29T22:29:27.775Z,11.17
2023-04-29T22:31:56.215Z,13.00
2023-04-29T22:34:25.461Z,12.33
2023-04-29T22:36:53.162Z,16.43
2023-04-29T22:39:20.937Z,14.83
2023-04-29T22:41:48.643Z,12.10
2023-04-29T22:44:16.294Z,14.50
2023-04-29T22:46:43.911Z,12.40
2023-04-29T22:49:11.731Z,12.50
2023-04-29T22:51:41.337Z,16.80
2023-04-29T22:54:09.199Z,15.60
2023-04-29T22:56:36.880Z,15.20
2023-04-29T22:59:04.829Z,15.90
2023-04-29T23:01:32.604Z,17.13
2023-04-29T23:04:00.364Z,14.47
2023-04-29T23:06:27.925Z,13.00
2023-04-29T23:08:57.009Z,14.20
2023-04-29T23:11:24.999Z,14.73
2023-04-29T23:13:52.851Z,12.40
2023-04-29T23:16:22.947Z,15.97
2023-04-29T23:18:50.939Z,12.20
2023-04-29T23:21:18.543Z,13.80
2023-04-29T23:23:48.569Z,15.77
2023-04-29T23:26:17.621Z,12.20
2023-04-29T23:28:45.732Z,17.13
2023-04-29T23:31:13.402Z,14.23
2023-04-29T23:33:41.255Z,16.30
2023-04-29T23:36:09.053Z,15.57
2023-04-29T23:38:36.718Z,14.80
2023-04-29T23:41:04.455Z,14.80
2023-04-29T23:43:36.478Z,16.03
2023-04-29T23:46:04.477Z,16.17
2023-04-29T23:48:32.407Z,14.60
2023-04-29T23:51:00.418Z,17.73
2023-04-29T23:53:27.987Z,18.43
2023-04-29T23:55:55.594Z,19.07
2023-04-29T23:58:23.345Z,18.13
